Terminal Aerodrome Forecast
Issued by NWS Knoxville/Tri Cities, TN

Home | Current Version | Previous Version | Text Only | Print | Product List | Glossary On
Versions: 1 2 3 4 5 6 7 8 9 10 11 12 13 14 15 16 17 18 19 20 21 22 23 24 25 26 27 28 29 30 31 32 33 34 35 36 37 38 39 40 41 42 43 44 45 46 47 48 49
000
FTUS44 KMRX 231021 AAD
TAFCHA
TAF AMD
KCHA 231021Z 2310/2406 00000KT 2SM BR SCT002 BKN025
      TEMPO 2310/2313 1/2SM FG BKN002
     FM231300 00000KT 3SM BR BKN035 BKN070
     FM231500 17004KT P6SM BKN050
     FM240000 00000KT P6SM BKN250=

USA.gov is the U.S. government's official web portal to all federal, state and local government web resources and services.